createdAt,value
2022-11-08T00:05:02.621Z,18.7
2022-11-08T00:20:03.548Z,18.6
2022-11-08T00:35:05.884Z,18.6
2022-11-08T00:50:04.616Z,18.6
2022-11-08T01:05:05.773Z,18.6
2022-11-08T01:20:05.821Z,18.6
2022-11-08T01:35:02.899Z,18.6
2022-11-08T01:50:04.733Z,18.6
2022-11-08T02:10:06.524Z,18.6
2022-11-08T02:25:02.547Z,18.6
2022-11-08T02:40:03.911Z,18.6
2022-11-08T02:55:03.769Z,18.6
2022-11-08T03:15:03.661Z,18.6
2022-11-08T03:30:05.374Z,18.6
2022-11-08T03:50:02.589Z,18.6
2022-11-08T04:10:04.595Z,18.6
2022-11-08T04:25:02.800Z,18.6
2022-11-08T04:40:02.835Z,18.5
2022-11-08T04:55:05.575Z,18.5
2022-11-08T05:10:02.737Z,18.5
2022-11-08T05:25:05.568Z,18.5
2022-11-08T05:40:03.790Z,18.6
2022-11-08T06:15:03.891Z,18.9
2022-11-08T06:30:03.840Z,19.2
2022-11-08T06:50:02.534Z,19.7
2022-11-08T07:05:04.795Z,20.1
2022-11-08T07:25:06.524Z,20.6
2022-11-08T07:40:02.475Z,21
2022-11-08T08:00:04.462Z,21.3
2022-11-08T08:15:06.707Z,21.5
2022-11-08T08:30:03.612Z,21.5
2022-11-08T08:50:02.507Z,21.6
2022-11-08T09:05:04.613Z,21.6
2022-11-08T09:20:02.775Z,21.5
2022-11-08T09:35:03.764Z,21.5
2022-11-08T09:50:03.929Z,21.5
2022-11-08T10:05:02.756Z,21.6
2022-11-08T10:20:06.530Z,21.6
2022-11-08T10:35:02.483Z,21.5
2022-11-08T10:50:03.963Z,21.4
2022-11-08T11:05:05.638Z,21.3
2022-11-08T11:20:05.759Z,21.3
2022-11-08T11:35:03.901Z,21.3
2022-11-08T12:10:05.881Z,21.3
2022-11-08T12:25:05.000Z,21.3
2022-11-08T12:45:05.680Z,21.2
2022-11-08T13:00:02.859Z,21.2
2022-11-08T13:15:04.725Z,21.2
2022-11-08T13:30:03.518Z,21.2
2022-11-08T13:50:05.961Z,21.2
2022-11-08T14:25:04.521Z,21.2
2022-11-08T14:40:06.667Z,21.1
2022-11-08T15:15:06.827Z,21.1
2022-11-08T15:30:04.847Z,21
2022-11-08T15:45:02.604Z,20.9
2022-11-08T16:00:05.537Z,20.9
2022-11-08T16:20:05.358Z,20.9
2022-11-08T16:35:05.593Z,21
2022-11-08T16:50:06.778Z,21
2022-11-08T17:05:02.746Z,21.1
2022-11-08T17:20:05.720Z,21.2
2022-11-08T17:55:03.669Z,21.2
